Time;durP1;ratioP1;P1;durP2;ratioP2;P2;SDS_P1;SDS_P2;PMS_P1;PMS_P2;Temp;Humidity;BMP_temperature;BMP_pressure;BME280_temperature;BME280_humidity;BME280_pressure;Samples;Min_cycle;Max_cycle;Signal;HPM_P1;HPM_P2
2021/12/03 00:00:31;;;;;;;;;;;307.20;2304.00;;;;;;5073993;28;19965;-78
2021/12/03 00:02:56;;;;;;;;;;;307.20;2304.00;;;;;;5074157;28;19905;-79
2021/12/03 00:05:22;;;;;;;;;;;282.50;2278.40;;;;;;5074037;28;19991;-78
2021/12/03 00:07:48;;;;;;;;;;;282.50;2278.40;;;;;;5074099;28;19911;-78
2021/12/03 00:10:14;;;;;;;;;;;282.50;2278.40;;;;;;5073945;28;19904;-78
2021/12/03 00:12:40;;;;;;;;;;;282.50;2278.40;;;;;;5074152;28;19912;-78
2021/12/03 00:15:07;;;;;;;;;;;307.20;2304.00;;;;;;5073553;28;20001;-79
2021/12/03 00:17:33;;;;;;;;;;;307.20;2304.00;;;;;;5072567;28;20283;-78
2021/12/03 00:19:59;;;;;;;;;;;307.20;2304.00;;;;;;5073730;28;20046;-79
2021/12/03 00:22:24;;;;;;;;;;;307.30;2304.00;;;;;;5073570;28;20249;-78
2021/12/03 00:24:50;;;;;;;;;;;307.30;2304.00;;;;;;5073831;28;19958;-77
2021/12/03 00:27:16;;;;;;;;;;;307.30;2304.00;;;;;;5073470;28;19905;-78
2021/12/03 00:29:41;;;;;;;;;;;307.20;2304.00;;;;;;5074117;28;19911;-79
2021/12/03 00:32:07;;;;;;;;;;;307.30;2304.00;;;;;;5072346;28;20237;-77
2021/12/03 00:34:33;;;;;;;;;;;282.50;2278.40;;;;;;5073729;28;20418;-78
2021/12/03 00:36:59;;;;;;;;;;;307.30;2304.00;;;;;;5073350;28;19982;-78
2021/12/03 00:39:26;;;;;;;;;;;307.30;2304.00;;;;;;5073603;28;20416;-79
2021/12/03 00:41:58;;;;;;;;;;;307.30;2304.00;;;;;;5072172;28;19935;-79
2021/12/03 00:44:25;;;;;;;;;;;307.30;2304.00;;;;;;5072444;28;20323;-78
2021/12/03 00:46:51;;;;;;;;;;;307.20;2304.00;;;;;;5073857;28;20344;-78
2021/12/03 00:49:16;;;;;;;;;;;307.20;2304.00;;;;;;5072921;28;20004;-78
2021/12/03 00:51:42;;;;;;;;;;;307.20;2304.00;;;;;;5073489;28;20341;-75
2021/12/03 00:54:08;;;;;;;;;;;282.50;2278.40;;;;;;5073141;28;19911;-77
2021/12/03 00:56:33;;;;;;;;;;;307.20;2304.00;;;;;;5072033;28;20014;-79
2021/12/03 00:58:59;;;;;;;;;;;282.50;2278.40;;;;;;5072890;28;19904;-79
2021/12/03 01:01:24;;;;;;;;;;;282.50;2278.40;;;;;;5072206;28;19981;-74
2021/12/03 01:03:50;;;;;;;;;;;282.50;2278.40;;;;;;5071842;28;19905;-78
2021/12/03 01:06:16;;;;;;;;;;;307.20;2304.00;;;;;;5071922;28;19904;-78
2021/12/03 01:08:42;;;;;;;;;;;307.30;2304.00;;;;;;5072647;28;19909;-77
2021/12/03 01:11:08;;;;;;;;;;;307.30;2304.00;;;;;;5071461;28;19927;-77
2021/12/03 01:13:35;;;;;;;;;;;307.40;2304.00;;;;;;5072959;28;19908;-78
2021/12/03 01:16:01;;;;;;;;;;;307.50;2304.00;;;;;;5071475;28;19924;-78
2021/12/03 01:18:27;;;;;;;;;;;307.60;2304.00;;;;;;5072891;28;19908;-78
2021/12/03 01:20:52;;;;;;;;;;;307.60;2304.00;;;;;;5072823;28;19912;-77
2021/12/03 01:23:18;;;;;;;;;;;307.70;2304.00;;;;;;5073120;28;19905;-78
2021/12/03 01:25:43;;;;;;;;;;;307.70;2304.00;;;;;;5073164;28;20312;-78
2021/12/03 01:28:09;;;;;;;;;;;307.60;2304.00;;;;;;5076903;28;19947;-78
2021/12/03 01:30:35;;;;;;;;;;;307.60;2304.00;;;;;;5076845;28;19911;-78
2021/12/03 01:33:05;;;;;;;;;;;307.50;2304.00;;;;;;5076980;28;19943;-78
2021/12/03 01:35:31;;;;;;;;;;;307.40;2304.00;;;;;;5076809;28;20002;-77
2021/12/03 01:37:57;;;;;;;;;;;307.40;2304.00;;;;;;5076622;28;19908;-78
2021/12/03 01:40:24;;;;;;;;;;;307.30;2304.00;;;;;;5076729;28;20371;-77
2021/12/03 01:42:50;;;;;;;;;;;307.20;2304.00;;;;;;5075152;28;20348;-77
2021/12/03 01:45:17;;;;;;;;;;;282.50;2278.40;;;;;;5076728;28;19904;-78
2021/12/03 01:47:44;;;;;;;;;;;282.40;2278.40;;;;;;5076506;28;20459;-79
2021/12/03 01:50:10;;;;;;;;;;;282.30;2278.40;;;;;;5076475;28;19920;-76
2021/12/03 01:52:36;;;;;;;;;;;282.40;2278.40;;;;;;5076340;28;20275;-77
2021/12/03 01:55:03;;;;;;;;;;;282.30;2278.40;;;;;;5076515;28;19911;-76
2021/12/03 01:57:29;;;;;;;;;;;282.10;2278.40;;;;;;5075905;28;19912;-78
2021/12/03 01:59:54;;;;;;;;;;;281.90;2278.40;;;;;;5076134;28;20006;-77
2021/12/03 02:02:20;;;;;;;;;;;281.80;2278.40;;;;;;5076363;28;19943;-78
2021/12/03 02:04:45;;;;;;;;;;;281.70;2278.40;;;;;;5076222;28;19959;-78
2021/12/03 02:07:11;;;;;;;;;;;281.70;2278.40;;;;;;5076317;28;20259;-79
2021/12/03 02:09:37;;;;;;;;;;;281.70;2278.40;;;;;;5076218;28;20328;-77
2021/12/03 02:12:02;;;;;;;;;;;281.70;2278.40;;;;;;5076102;28;19943;-78
2021/12/03 02:14:28;;;;;;;;;;;281.70;2278.40;;;;;;5075771;28;20307;-79
2021/12/03 02:16:54;;;;;;;;;;;281.60;2278.40;;;;;;5076007;28;19974;-78
2021/12/03 02:19:19;;;;;;;;;;;256.90;2252.80;;;;;;5075723;28;19911;-77
2021/12/03 02:21:45;;;;;;;;;;;256.80;2252.80;;;;;;5075128;28;19996;-77
2021/12/03 02:24:10;;;;;;;;;;;256.90;2252.80;;;;;;5075621;28;19904;-77
2021/12/03 02:26:36;;;;;;;;;;;256.70;2252.80;;;;;;5075109;28;19905;-79
2021/12/03 02:29:02;;;;;;;;;;;256.70;2252.80;;;;;;5075676;28;19997;-78
2021/12/03 02:31:28;;;;;;;;;;;256.60;2252.80;;;;;;5075646;28;20377;-78
2021/12/03 02:33:53;;;;;;;;;;;256.60;2252.80;;;;;;5075882;28;19957;-78
2021/12/03 02:36:19;;;;;;;;;;;256.60;2252.80;;;;;;5075404;28;20651;-77
2021/12/03 02:38:45;;;;;;;;;;;256.50;2252.80;;;;;;5074362;28;19908;-78
2021/12/03 02:41:11;;;;;;;;;;;256.50;2252.80;;;;;;5074275;28;19904;-77
2021/12/03 02:43:37;;;;;;;;;;;256.50;2252.80;;;;;;5074255;28;20011;-78
2021/12/03 02:46:03;;;;;;;;;;;256.50;2252.80;;;;;;5075315;28;19904;-77
2021/12/03 02:48:31;;;;;;;;;;;256.50;2252.80;;;;;;5075307;28;19962;-78
2021/12/03 02:50:57;;;;;;;;;;;256.40;2252.80;;;;;;5075255;28;19912;-76
2021/12/03 02:53:22;;;;;;;;;;;256.30;2252.80;;;;;;5075517;28;20020;-77
2021/12/03 02:55:49;;;;;;;;;;;256.40;2252.80;;;;;;5075345;28;19931;-77
2021/12/03 02:58:15;;;;;;;;;;;256.30;2252.80;;;;;;5075212;28;19913;-77
2021/12/03 03:00:41;;;;;;;;;;;256.30;2252.80;;;;;;5075379;28;19912;-78
2021/12/03 03:03:07;;;;;;;;;;;256.20;2252.80;;;;;;5075266;28;19911;-77
2021/12/03 03:05:33;;;;;;;;;;;256.00;2252.80;;;;;;5075343;28;20288;-78
2021/12/03 03:07:58;;;;;;;;;;;231.20;2252.80;;;;;;5075121;28;19910;-78
2021/12/03 03:10:28;;;;;;;;;;;231.10;2252.80;;;;;;5075167;28;19954;-78
2021/12/03 03:12:54;;;;;;;;;;;230.90;2252.80;;;;;;5075013;28;19905;-78
2021/12/03 03:15:19;;;;;;;;;;;231.00;2252.80;;;;;;5074903;28;19905;-75
2021/12/03 03:17:45;;;;;;;;;;;231.00;2252.80;;;;;;5074530;28;19989;-77
2021/12/03 03:20:12;;;;;;;;;;;231.00;2252.80;;;;;;5074800;28;19954;-75
2021/12/03 03:22:38;;;;;;;;;;;230.90;2252.80;;;;;;5073518;28;19904;-78
2021/12/03 03:25:05;;;;;;;;;;;230.90;2252.80;;;;;;5074460;28;19905;-77
2021/12/03 03:27:31;;;;;;;;;;;230.90;2252.80;;;;;;5074731;28;19904;-77
2021/12/03 03:29:57;;;;;;;;;;;230.80;2252.80;;;;;;5074410;28;20403;-77
2021/12/03 03:32:22;;;;;;;;;;;230.80;2252.80;;;;;;5074509;28;19905;-75
2021/12/03 03:34:48;;;;;;;;;;;230.80;2252.80;;;;;;5074498;28;19904;-77
2021/12/03 03:37:14;;;;;;;;;;;230.60;2252.80;;;;;;5074533;28;19945;-79
2021/12/03 03:39:40;;;;;;;;;;;230.70;2252.80;;;;;;5074254;28;19915;-77
2021/12/03 03:42:06;;;;;;;;;;;230.50;2252.80;;;;;;5074428;28;19904;-78
2021/12/03 03:44:32;;;;;;;;;;;230.60;2252.80;;;;;;5074056;28;19911;-78
2021/12/03 03:47:00;;;;;;;;;;;230.60;2252.80;;;;;;5074235;28;19904;-77
2021/12/03 03:49:26;;;;;;;;;;;230.70;2252.80;;;;;;5073663;28;19917;-77
2021/12/03 03:51:51;;;;;;;;;;;230.60;2252.80;;;;;;5074219;28;20378;-77
2021/12/03 03:54:17;;;;;;;;;;;230.50;2252.80;;;;;;5073175;28;19954;-78
2021/12/03 03:56:44;;;;;;;;;;;230.40;2252.80;;;;;;5072751;28;20364;-78
2021/12/03 03:59:09;;;;;;;;;;;205.60;2252.80;;;;;;5074359;28;19947;-79
2021/12/03 04:01:35;;;;;;;;;;;205.60;2252.80;;;;;;5074000;28;19912;-75
2021/12/03 04:04:01;;;;;;;;;;;205.60;2252.80;;;;;;5074520;28;19904;-77
2021/12/03 04:06:27;;;;;;;;;;;205.40;2252.80;;;;;;5073855;28;19911;-77
2021/12/03 04:08:52;;;;;;;;;;;205.30;2252.80;;;;;;5074338;28;19904;-78
2021/12/03 04:11:19;;;;;;;;;;;205.30;2252.80;;;;;;5073895;28;20375;-78
2021/12/03 04:13:45;;;;;;;;;;;205.30;2252.80;;;;;;5073711;28;19908;-78
2021/12/03 04:16:11;;;;;;;;;;;205.30;2252.80;;;;;;5073908;28;20335;-78
2021/12/03 04:18:36;;;;;;;;;;;205.40;2252.80;;;;;;5073628;28;19991;-77
2021/12/03 04:21:02;;;;;;;;;;;205.20;2252.80;;;;;;5072695;28;19909;-78
2021/12/03 04:23:28;;;;;;;;;;;205.30;2252.80;;;;;;5073746;28;19911;-78
2021/12/03 04:25:53;;;;;;;;;;;205.30;2252.80;;;;;;5073883;28;19910;-78
2021/12/03 04:28:20;;;;;;;;;;;205.10;2252.80;;;;;;5073651;28;19905;-78
2021/12/03 04:30:46;;;;;;;;;;;205.10;2252.80;;;;;;5073784;28;19904;-74
2021/12/03 04:33:11;;;;;;;;;;;204.90;2252.80;;;;;;5073612;28;19918;-78
2021/12/03 04:35:37;;;;;;;;;;;204.80;2252.80;;;;;;5072686;28;20002;-75
2021/12/03 04:38:04;;;;;;;;;;;204.80;2252.80;;;;;;5073533;28;19915;-79
2021/12/03 04:40:30;;;;;;;;;;;204.80;2252.80;;;;;;5073723;28;19904;-79
2021/12/03 04:42:55;;;;;;;;;;;204.80;2252.80;;;;;;5073915;28;19908;-78
2021/12/03 04:45:22;;;;;;;;;;;180.10;2252.80;;;;;;5073242;28;19912;-79
2021/12/03 04:47:49;;;;;;;;;;;204.80;2252.80;;;;;;5073693;28;19904;-79
2021/12/03 04:50:15;;;;;;;;;;;180.10;2252.80;;;;;;5073358;28;19928;-76
2021/12/03 04:52:41;;;;;;;;;;;204.90;2252.80;;;;;;5073689;28;19973;-79
2021/12/03 04:55:08;;;;;;;;;;;204.90;2252.80;;;;;;5073408;28;20368;-79
2021/12/03 04:57:33;;;;;;;;;;;204.80;2252.80;;;;;;5072011;28;19912;-79
2021/12/03 04:59:59;;;;;;;;;;;204.80;2252.80;;;;;;5072568;28;20353;-76
2021/12/03 05:02:26;;;;;;;;;;;204.80;2252.80;;;;;;5072350;28;19908;-77
2021/12/03 05:04:54;;;;;;;;;;;180.10;2252.80;;;;;;5071662;28;19910;-77
2021/12/03 05:10:05;;;;;;;;;;;180.10;2252.80;;;;;;5072980;28;19932;-76
2021/12/03 05:12:31;;;;;;;;;;;179.90;2252.80;;;;;;5072616;28;19974;-75
2021/12/03 05:14:57;;;;;;;;;;;179.90;2252.80;;;;;;5072715;28;20356;-77
2021/12/03 05:17:22;;;;;;;;;;;179.90;2252.80;;;;;;5072844;28;19966;-77
2021/12/03 05:19:48;;;;;;;;;;;179.90;2252.80;;;;;;5072824;28;19951;-77
2021/12/03 05:22:14;;;;;;;;;;;179.90;2252.80;;;;;;5072826;28;20386;-76
2021/12/03 05:24:40;;;;;;;;;;;179.90;2252.80;;;;;;5072492;28;19904;-76
2021/12/03 05:27:06;;;;;;;;;;;179.90;2252.80;;;;;;5072681;28;20357;-74
2021/12/03 05:29:31;;;;;;;;;;;179.90;2252.80;;;;;;5072477;28;19911;-76
2021/12/03 05:31:57;;;;;;;;;;;179.90;2252.80;;;;;;5072666;28;19911;-77
2021/12/03 05:34:24;;;;;;;;;;;179.90;2252.80;;;;;;5072471;28;19916;-77
2021/12/03 05:36:50;;;;;;;;;;;204.90;2252.80;;;;;;5072739;28;19913;-75
2021/12/03 05:39:15;;;;;;;;;;;204.90;2252.80;;;;;;5071156;28;19905;-75
2021/12/03 05:41:41;;;;;;;;;;;204.80;2252.80;;;;;;5072527;28;19912;-74
2021/12/03 05:44:07;;;;;;;;;;;180.10;2252.80;;;;;;5071120;28;19905;-74
2021/12/03 05:46:33;;;;;;;;;;;180.10;2252.80;;;;;;5071077;28;19911;-75
2021/12/03 05:48:58;;;;;;;;;;;204.80;2252.80;;;;;;5070751;28;19916;-77
2021/12/03 05:51:26;;;;;;;;;;;204.80;2252.80;;;;;;5072488;28;19915;-74
2021/12/03 05:53:52;;;;;;;;;;;205.10;2252.80;;;;;;5072564;28;19936;-76
2021/12/03 05:56:18;;;;;;;;;;;205.10;2252.80;;;;;;5072141;28;19916;-76
2021/12/03 05:58:44;;;;;;;;;;;205.20;2252.80;;;;;;5071007;28;19908;-77
2021/12/03 06:01:10;;;;;;;;;;;205.30;2252.80;;;;;;5072301;28;19914;-78
2021/12/03 06:03:35;;;;;;;;;;;205.20;2252.80;;;;;;5072407;28;20310;-75
2021/12/03 06:06:01;;;;;;;;;;;205.20;2252.80;;;;;;5072076;28;19912;-78
2021/12/03 06:08:27;;;;;;;;;;;205.40;2252.80;;;;;;5072338;28;19904;-76
2021/12/03 06:10:52;;;;;;;;;;;205.40;2252.80;;;;;;5072265;28;19950;-76
2021/12/03 06:13:18;;;;;;;;;;;205.40;2252.80;;;;;;5073876;28;19911;-77
2021/12/03 06:15:43;;;;;;;;;;;205.60;2252.80;;;;;;5075851;28;20352;-77
2021/12/03 06:18:09;;;;;;;;;;;205.50;2252.80;;;;;;5076180;28;19908;-74
2021/12/03 06:20:34;;;;;;;;;;;205.50;2252.80;;;;;;5076100;28;20390;-74
2021/12/03 06:23:00;;;;;;;;;;;205.50;2252.80;;;;;;5075939;28;19912;-78
2021/12/03 06:25:25;;;;;;;;;;;205.40;2252.80;;;;;;5074794;28;19999;-75
2021/12/03 06:27:54;;;;;;;;;;;205.40;2252.80;;;;;;5076041;28;19915;-74
2021/12/03 06:30:21;;;;;;;;;;;205.30;2252.80;;;;;;5075850;28;19904;-78
2021/12/03 06:32:46;;;;;;;;;;;205.60;2252.80;;;;;;5076012;28;19916;-78
2021/12/03 06:35:13;;;;;;;;;;;205.60;2252.80;;;;;;5076106;28;19904;-78
2021/12/03 06:37:39;;;;;;;;;;;205.60;2252.80;;;;;;5075681;28;19918;-78
2021/12/03 06:40:06;;;;;;;;;;;205.60;2252.80;;;;;;5076118;28;20002;-78
2021/12/03 06:42:31;;;;;;;;;;;205.60;2252.80;;;;;;5075729;28;19904;-78
2021/12/03 06:44:57;;;;;;;;;;;205.20;2252.80;;;;;;5075502;28;19949;-78
2021/12/03 06:47:23;;;;;;;;;;;205.40;2252.80;;;;;;5074839;28;19904;-77
2021/12/03 06:49:48;;;;;;;;;;;205.20;2252.80;;;;;;5075252;28;20307;-74
2021/12/03 06:52:15;;;;;;;;;;;205.30;2252.80;;;;;;5075527;28;19909;-78
2021/12/03 06:54:42;;;;;;;;;;;205.30;2252.80;;;;;;5075416;28;20087;-77
2021/12/03 06:57:08;;;;;;;;;;;205.30;2252.80;;;;;;5075679;28;19912;-79
2021/12/03 06:59:34;;;;;;;;;;;205.30;2252.80;;;;;;5075181;28;19959;-78
2021/12/03 07:02:00;;;;;;;;;;;205.30;2252.80;;;;;;5075408;28;19905;-77
2021/12/03 07:04:26;;;;;;;;;;;205.20;2252.80;;;;;;5075161;28;19986;-77
2021/12/03 07:06:51;;;;;;;;;;;205.10;2252.80;;;;;;5075339;28;19908;-77
2021/12/03 07:09:17;;;;;;;;;;;205.00;2252.80;;;;;;5074927;28;19904;-78
2021/12/03 07:11:43;;;;;;;;;;;205.10;2252.80;;;;;;5074450;28;19987;-75
2021/12/03 07:14:08;;;;;;;;;;;205.00;2252.80;;;;;;5074694;28;19915;-77
2021/12/03 07:16:34;;;;;;;;;;;205.10;2252.80;;;;;;5074562;28;20309;-76
2021/12/03 07:19:00;;;;;;;;;;;205.00;2252.80;;;;;;5073629;28;19994;-78
2021/12/03 07:21:26;;;;;;;;;;;205.00;2252.80;;;;;;5074840;28;20360;-77
2021/12/03 07:23:53;;;;;;;;;;;205.10;2252.80;;;;;;5074141;28;20321;-77
2021/12/03 07:26:20;;;;;;;;;;;204.90;2252.80;;;;;;5074648;28;19930;-77
2021/12/03 07:28:45;;;;;;;;;;;204.80;2252.80;;;;;;5074288;28;19910;-78
2021/12/03 07:31:11;;;;;;;;;;;204.90;2252.80;;;;;;5073573;28;20039;-77
2021/12/03 07:33:37;;;;;;;;;;;205.00;2252.80;;;;;;5074510;28;19905;-77
2021/12/03 07:36:05;;;;;;;;;;;205.00;2252.80;;;;;;5073712;28;20069;-77
2021/12/03 07:38:31;;;;;;;;;;;205.00;2252.80;;;;;;5073246;28;19908;-77
2021/12/03 07:40:56;;;;;;;;;;;205.00;2252.80;;;;;;5072872;28;19909;-79
2021/12/03 07:43:22;;;;;;;;;;;205.10;2252.80;;;;;;5073816;28;19919;-76
2021/12/03 07:45:48;;;;;;;;;;;205.00;2252.80;;;;;;5074099;28;19936;-76
2021/12/03 07:48:13;;;;;;;;;;;205.00;2252.80;;;;;;5074116;28;19908;-77
2021/12/03 07:50:40;;;;;;;;;;;205.00;2252.80;;;;;;5074426;28;20383;-78
2021/12/03 07:53:07;;;;;;;;;;;205.00;2252.80;;;;;;5074306;28;19911;-78
2021/12/03 07:55:33;;;;;;;;;;;204.80;2252.80;;;;;;5073002;28;19904;-77
2021/12/03 07:57:59;;;;;;;;;;;204.80;2252.80;;;;;;5073773;28;20395;-77
2021/12/03 08:00:24;;;;;;;;;;;204.80;2252.80;;;;;;5073933;28;19909;-76
2021/12/03 08:02:50;;;;;;;;;;;180.10;2252.80;;;;;;5073926;28;19908;-77
2021/12/03 08:05:16;;;;;;;;;;;180.00;2252.80;;;;;;5073999;28;20000;-78
2021/12/03 08:07:45;;;;;;;;;;;180.10;2252.80;;;;;;5073539;28;19962;-76
2021/12/03 08:10:11;;;;;;;;;;;205.00;2252.80;;;;;;5071011;28;19904;-77
2021/12/03 08:12:39;;;;;;;;;;;205.00;2252.80;;;;;;5073508;28;19984;-77
2021/12/03 08:15:05;;;;;;;;;;;180.10;2252.80;;;;;;5072999;28;19908;-77
2021/12/03 08:17:30;;;;;;;;;;;180.10;2252.80;;;;;;5073186;28;20404;-76
2021/12/03 08:19:56;;;;;;;;;;;179.90;2252.80;;;;;;5071769;28;19956;-75
2021/12/03 08:22:22;;;;;;;;;;;204.80;2252.80;;;;;;5073608;28;19999;-76
2021/12/03 08:24:47;;;;;;;;;;;180.10;2252.80;;;;;;5072781;28;19908;-80
2021/12/03 08:27:13;;;;;;;;;;;180.10;2252.80;;;;;;5073486;28;20340;-79
2021/12/03 08:29:39;;;;;;;;;;;180.10;2252.80;;;;;;5070204;28;19935;-74
2021/12/03 08:32:04;;;;;;;;;;;180.10;2252.80;;;;;;5072835;28;19993;-77
2021/12/03 08:34:30;;;;;;;;;;;204.90;2252.80;;;;;;5073178;28;19911;-75
2021/12/03 08:36:56;;;;;;;;;;;204.80;2252.80;;;;;;5072908;28;19999;-77
2021/12/03 08:39:21;;;;;;;;;;;204.90;2252.80;;;;;;5072952;28;20280;-79
2021/12/03 08:41:47;;;;;;;;;;;204.90;2252.80;;;;;;5071614;28;20403;-76
2021/12/03 08:44:13;;;;;;;;;;;204.90;2252.80;;;;;;5071654;28;19912;-76
2021/12/03 08:46:39;;;;;;;;;;;205.00;2252.80;;;;;;5072384;28;19987;-75
2021/12/03 08:51:47;;;;;;;;;;;205.00;2252.80;;;;;;5072698;28;20418;-79
2021/12/03 08:56:57;;;;;;;;;;;205.00;2252.80;;;;;;5072328;28;19919;-76
2021/12/03 08:59:23;;;;;;;;;;;205.10;2252.80;;;;;;5072215;28;19909;-76
2021/12/03 09:01:49;;;;;;;;;;;205.20;2252.80;;;;;;5072480;28;19924;-77
2021/12/03 09:04:14;;;;;;;;;;;205.40;2252.80;;;;;;5072444;28;19931;-77
2021/12/03 09:06:40;;;;;;;;;;;205.20;2252.80;;;;;;5072591;28;19908;-76
2021/12/03 09:09:07;;;;;;;;;;;205.00;2252.80;;;;;;5072444;28;19905;-76
2021/12/03 09:11:36;;;;;;;;;;;204.90;2252.80;;;;;;5071931;28;19904;-75
2021/12/03 09:14:07;;;;;;;;;;;204.90;2252.80;;;;;;5072334;28;19926;-75
2021/12/03 09:16:32;;;;;;;;;;;204.90;2252.80;;;;;;5071927;28;19916;-75
2021/12/03 09:18:59;;;;;;;;;;;204.80;2252.80;;;;;;5072207;28;19909;-76
2021/12/03 09:21:32;;;;;;;;;;;204.80;2252.80;;;;;;5072310;28;19989;-76
2021/12/03 09:26:27;;;;;;;;;;;204.80;2252.80;;;;;;5072890;28;20001;-81
2021/12/03 09:29:07;;;;;;;;;;;205.00;2252.80;;;;;;5072279;28;20356;-78
2021/12/03 09:31:35;;;;;;;;;;;205.20;2252.80;;;;;;5071185;28;20383;-78
2021/12/03 09:34:01;;;;;;;;;;;205.20;2252.80;;;;;;5071427;28;19967;-75
2021/12/03 09:36:26;;;;;;;;;;;205.00;2252.80;;;;;;5072488;28;20375;-78
2021/12/03 09:38:52;;;;;;;;;;;205.00;2252.80;;;;;;5072174;28;19904;-79
2021/12/03 09:41:18;;;;;;;;;;;205.10;2252.80;;;;;;5072167;28;20276;-74
2021/12/03 09:43:48;;;;;;;;;;;205.00;2252.80;;;;;;5071581;28;19905;-77
2021/12/03 09:51:23;;;;;;;;;;;204.90;2252.80;;;;;;5074383;28;19919;-78
2021/12/03 09:54:20;;;;;;;;;;;205.00;2252.80;;;;;;5076344;28;19949;-77
2021/12/03 09:56:41;;;;;;;;;;;205.00;2252.80;;;;;;5076200;28;19919;-79
2021/12/03 10:12:40;;;;;;;;;;;205.10;2252.80;;;;;;5034045;28;19916;-76
2021/12/03 10:15:09;;;;;;;;;;;205.20;2252.80;;;;;;5032017;28;20003;-75
2021/12/03 10:21:01;;;;;;;;;;;205.40;2252.80;;;;;;5004966;28;19967;-75
2021/12/03 10:26:50;;;;;;;;;;;205.50;2252.80;;;;;;5005017;28;20405;-78
2021/12/03 10:42:21;;;;;;;;;;;205.40;2252.80;;;;;;5051529;28;19987;-79
2021/12/03 10:45:57;;;;;;;;;;;205.20;2252.80;;;;;;5051682;28;19904;-79
2021/12/03 11:36:24;;;;;;;;;;;205.70;2252.80;;;;;;4992938;28;19999;-76
2021/12/03 11:47:06;;;;;;;;;;;205.50;2252.80;;;;;;5012400;28;20277;-78
2021/12/03 11:52:17;;;;;;;;;;;205.60;2252.80;;;;;;5012905;28;19971;-79
2021/12/03 12:21:28;;;;;;;;;;;230.50;2252.80;;;;;;4982480;28;20306;-79
2021/12/03 12:41:02;;;;;;;;;;;205.70;2252.80;;;;;;4965127;28;19933;-78
2021/12/03 13:21:20;;;;;;;;;;;205.30;2252.80;;;;;;5067140;28;19923;-76
2021/12/03 13:24:37;;;;;;;;;;;205.30;2252.80;;;;;;5056282;28;19908;-76
2021/12/03 13:35:54;;;;;;;;;;;205.40;2252.80;;;;;;5068918;28;19995;-75
2021/12/03 13:56:09;;;;;;;;;;;205.60;2252.80;;;;;;5059026;28;19935;-76
2021/12/03 14:40:21;;;;;;;;;;;205.40;2252.80;;;;;;5054283;28;20013;-78
2021/12/03 14:45:29;;;;;;;;;;;205.40;2252.80;;;;;;5053971;28;20518;-79
2021/12/03 14:48:09;;;;;;;;;;;205.30;2252.80;;;;;;5054069;28;19951;-78
2021/12/03 14:50:50;;;;;;;;;;;205.30;2252.80;;;;;;5053760;28;19959;-78
2021/12/03 14:55:52;;;;;;;;;;;205.20;2252.80;;;;;;5054139;28;19905;-78
2021/12/03 14:58:46;;;;;;;;;;;205.40;2252.80;;;;;;5069287;28;19913;-78
2021/12/03 15:09:01;;;;;;;;;;;205.40;2252.80;;;;;;5075362;28;19905;-78
2021/12/03 15:25:10;;;;;;;;;;;205.20;2252.80;;;;;;5075191;28;19904;-78
2021/12/03 15:32:55;;;;;;;;;;;205.30;2252.80;;;;;;5074753;28;20144;-79
2021/12/03 15:35:25;;;;;;;;;;;205.30;2252.80;;;;;;5072119;28;20574;-79
2021/12/03 16:04:41;;;;;;;;;;;205.30;2252.80;;;;;;5073866;28;19912;-76
2021/12/03 16:22:42;;;;;;;;;;;205.30;2252.80;;;;;;5051759;28;19905;-77
2021/12/03 16:51:41;;;;;;;;;;;205.00;2252.80;;;;;;5071313;28;20899;-77
2021/12/03 16:54:11;;;;;;;;;;;205.10;2252.80;;;;;;5069089;28;20412;-77
2021/12/03 16:56:43;;;;;;;;;;;204.90;2252.80;;;;;;5070740;28;19927;-76
2021/12/03 16:59:09;;;;;;;;;;;204.80;2252.80;;;;;;5071658;28;19948;-77
2021/12/03 17:56:16;;;;;;;;;;;204.90;2252.80;;;;;;5027917;28;20141;-78
2021/12/03 17:58:48;;;;;;;;;;;205.00;2252.80;;;;;;5030826;28;19909;-74
2021/12/03 18:04:02;;;;;;;;;;;204.80;2252.80;;;;;;5027712;28;19909;-76
2021/12/03 18:17:39;;;;;;;;;;;205.10;2252.80;;;;;;5075040;28;19920;-75
2021/12/03 18:57:20;;;;;;;;;;;204.90;2252.80;;;;;;5074840;28;19919;-74
2021/12/03 18:59:55;;;;;;;;;;;204.90;2252.80;;;;;;5072086;28;20012;-76
2021/12/03 19:02:23;;;;;;;;;;;205.00;2252.80;;;;;;5074158;28;19954;-77
2021/12/03 19:05:42;;;;;;;;;;;180.10;2252.80;;;;;;5074601;28;19915;-76
2021/12/03 19:07:44;;;;;;;;;;;179.90;2252.80;;;;;;5069961;28;19931;-77
2021/12/03 19:10:17;;;;;;;;;;;179.70;2252.80;;;;;;5072207;28;19974;-76
2021/12/03 19:12:45;;;;;;;;;;;179.80;2252.80;;;;;;5074838;28;19936;-75
2021/12/03 19:15:12;;;;;;;;;;;179.80;2252.80;;;;;;5074080;28;20272;-77
2021/12/03 19:17:41;;;;;;;;;;;179.90;2252.80;;;;;;5063283;28;20361;-77
2021/12/03 19:20:10;;;;;;;;;;;204.80;2252.80;;;;;;5069466;28;20338;-76
2021/12/03 19:22:36;;;;;;;;;;;179.60;2252.80;;;;;;5071748;28;19931;-75
2021/12/03 19:25:02;;;;;;;;;;;179.30;2252.80;;;;;;5074081;28;20362;-76
2021/12/03 19:27:28;;;;;;;;;;;179.30;2252.80;;;;;;5073109;28;20690;-76
2021/12/03 19:29:54;;;;;;;;;;;179.40;2252.80;;;;;;5070934;28;19908;-75
2021/12/03 19:32:26;;;;;;;;;;;154.40;2252.80;;;;;;5060851;28;19911;-76
2021/12/03 19:34:52;;;;;;;;;;;179.20;2252.80;;;;;;5073978;28;19964;-76
2021/12/03 19:37:18;;;;;;;;;;;154.40;2252.80;;;;;;5073854;28;19912;-74
2021/12/03 19:39:43;;;;;;;;;;;154.50;2252.80;;;;;;5073901;28;20009;-77
2021/12/03 19:42:13;;;;;;;;;;;154.40;2252.80;;;;;;5074135;28;20463;-76
2021/12/03 19:47:09;;;;;;;;;;;154.30;2252.80;;;;;;5068774;28;19912;-78
2021/12/03 19:49:49;;;;;;;;;;;154.10;2252.80;;;;;;5067966;28;19923;-76
2021/12/03 19:52:35;;;;;;;;;;;154.10;2252.80;;;;;;5071097;28;19912;-77
2021/12/03 19:55:02;;;;;;;;;;;153.70;2252.80;;;;;;5071542;28;19904;-77
2021/12/03 19:57:27;;;;;;;;;;;153.70;2252.80;;;;;;5073571;28;19912;-75
2021/12/03 19:59:53;;;;;;;;;;;153.70;2252.80;;;;;;5073832;28;20276;-77
2021/12/03 20:02:19;;;;;;;;;;;153.70;2252.80;;;;;;5073263;28;19909;-75
2021/12/03 20:04:45;;;;;;;;;;;153.80;2252.80;;;;;;5073862;28;20416;-77
2021/12/03 20:07:11;;;;;;;;;;;153.80;2252.80;;;;;;5072944;28;19908;-76
2021/12/03 20:09:45;;;;;;;;;;;153.80;2252.80;;;;;;5072772;28;19926;-76
2021/12/03 20:12:15;;;;;;;;;;;153.70;2252.80;;;;;;5069641;28;20011;-76
2021/12/03 20:14:43;;;;;;;;;;;153.80;2252.80;;;;;;5071876;28;19927;-77
2021/12/03 20:17:16;;;;;;;;;;;153.80;2252.80;;;;;;5071585;28;20327;-77
2021/12/03 20:19:47;;;;;;;;;;;153.90;2252.80;;;;;;5072287;28;19924;-75
2021/12/03 20:22:21;;;;;;;;;;;153.90;2252.80;;;;;;5070931;28;19912;-77
2021/12/03 20:27:14;;;;;;;;;;;153.70;2252.80;;;;;;5072490;28;19908;-77
2021/12/03 20:37:41;;;;;;;;;;;153.70;2252.80;;;;;;5070622;28;20500;-76
2021/12/03 20:40:11;;;;;;;;;;;153.60;2252.80;;;;;;5070490;28;20045;-76
2021/12/03 20:50:43;;;;;;;;;;;153.60;2252.80;;;;;;5072019;28;20391;-76
2021/12/03 21:09:23;;;;;;;;;;;128.60;2252.80;;;;;;5071203;28;20377;-77
2021/12/03 21:11:52;;;;;;;;;;;128.60;2252.80;;;;;;5072347;28;19904;-77
2021/12/03 21:14:20;;;;;;;;;;;128.60;2252.80;;;;;;5072338;28;20394;-77
2021/12/03 21:19:30;;;;;;;;;;;128.60;2252.80;;;;;;5070593;28;19918;-76
2021/12/03 21:22:03;;;;;;;;;;;128.40;2252.80;;;;;;5070334;28;19916;-76
2021/12/03 21:24:37;;;;;;;;;;;128.40;2252.80;;;;;;5072191;28;19908;-77
2021/12/03 21:27:08;;;;;;;;;;;128.40;2252.80;;;;;;5072547;28;20001;-79
2021/12/03 21:40:23;;;;;;;;;;;128.40;2252.80;;;;;;5073107;28;20383;-78
2021/12/03 21:42:48;;;;;;;;;;;128.40;2252.80;;;;;;5073675;28;19993;-79
2021/12/03 21:45:15;;;;;;;;;;;128.40;2252.80;;;;;;5077187;28;19916;-77
2021/12/03 21:47:40;;;;;;;;;;;128.50;2252.80;;;;;;5075776;28;19958;-79
2021/12/03 21:50:06;;;;;;;;;;;128.40;2252.80;;;;;;5076885;28;19967;-79
2021/12/03 21:52:32;;;;;;;;;;;128.40;2252.80;;;;;;5076393;28;20709;-79
2021/12/03 21:54:57;;;;;;;;;;;128.30;2252.80;;;;;;5076519;28;19908;-79
2021/12/03 21:57:26;;;;;;;;;;;128.40;2252.80;;;;;;5076023;28;19913;-79
2021/12/03 21:59:52;;;;;;;;;;;128.40;2252.80;;;;;;5075660;28;19904;-79
2021/12/03 22:02:17;;;;;;;;;;;128.30;2252.80;;;;;;5076149;28;19911;-79
2021/12/03 22:04:43;;;;;;;;;;;128.40;2252.80;;;;;;5076203;28;20352;-79
2021/12/03 22:07:11;;;;;;;;;;;128.10;2252.80;;;;;;5076146;28;19932;-80
2021/12/03 22:09:37;;;;;;;;;;;128.20;2252.80;;;;;;5076584;28;19936;-77
2021/12/03 22:12:03;;;;;;;;;;;128.40;2252.80;;;;;;5076806;28;19947;-80
2021/12/03 22:14:28;;;;;;;;;;;128.50;2252.80;;;;;;5076643;28;19912;-79
2021/12/03 22:16:54;;;;;;;;;;;128.60;2252.80;;;;;;5076734;28;20387;-75